sensor_id;sensor_type;location;lat;lon;timestamp;P1;durP1;ratioP1;P2;durP2;ratioP2
51438;SDS011;38816;51.142;-0.974;2023-05-15T00:01:37;5.93;;;4.10;;
51438;SDS011;38816;51.142;-0.974;2023-05-15T00:04:03;6.85;;;4.18;;
51438;SDS011;38816;51.142;-0.974;2023-05-15T00:06:28;6.47;;;4.00;;
51438;SDS011;38816;51.142;-0.974;2023-05-15T00:08:54;4.97;;;4.07;;
51438;SDS011;38816;51.142;-0.974;2023-05-15T00:11:19;9.70;;;4.00;;
51438;SDS011;38816;51.142;-0.974;2023-05-15T00:13:47;4.95;;;4.30;;
51438;SDS011;38816;51.142;-0.974;2023-05-15T00:16:13;5.07;;;3.95;;
51438;SDS011;38816;51.142;-0.974;2023-05-15T00:18:38;5.93;;;4.10;;
51438;SDS011;38816;51.142;-0.974;2023-05-15T00:21:04;4.78;;;3.60;;
51438;SDS011;38816;51.142;-0.974;2023-05-15T00:23:29;7.07;;;4.10;;
51438;SDS011;38816;51.142;-0.974;2023-05-15T00:25:54;4.55;;;3.92;;
51438;SDS011;38816;51.142;-0.974;2023-05-15T00:28:20;4.82;;;4.20;;
51438;SDS011;38816;51.142;-0.974;2023-05-15T00:30:45;4.50;;;3.97;;
51438;SDS011;38816;51.142;-0.974;2023-05-15T00:33:10;8.75;;;4.13;;
51438;SDS011;38816;51.142;-0.974;2023-05-15T00:35:36;5.55;;;4.35;;
51438;SDS011;38816;51.142;-0.974;2023-05-15T00:38:01;5.03;;;3.92;;
51438;SDS011;38816;51.142;-0.974;2023-05-15T00:40:26;7.82;;;4.70;;
51438;SDS011;38816;51.142;-0.974;2023-05-15T00:42:53;7.07;;;4.80;;
51438;SDS011;38816;51.142;-0.974;2023-05-15T00:45:19;6.05;;;4.50;;
51438;SDS011;38816;51.142;-0.974;2023-05-15T00:47:46;6.13;;;4.38;;
51438;SDS011;38816;51.142;-0.974;2023-05-15T00:50:13;6.63;;;4.60;;
51438;SDS011;38816;51.142;-0.974;2023-05-15T00:52:39;5.45;;;4.22;;
51438;SDS011;38816;51.142;-0.974;2023-05-15T00:55:04;5.15;;;4.22;;
51438;SDS011;38816;51.142;-0.974;2023-05-15T00:57:30;6.60;;;4.45;;
51438;SDS011;38816;51.142;-0.974;2023-05-15T00:59:56;7.30;;;5.07;;
51438;SDS011;38816;51.142;-0.974;2023-05-15T01:02:23;6.68;;;4.63;;
51438;SDS011;38816;51.142;-0.974;2023-05-15T01:04:48;5.25;;;4.53;;
51438;SDS011;38816;51.142;-0.974;2023-05-15T01:07:14;6.68;;;5.05;;
51438;SDS011;38816;51.142;-0.974;2023-05-15T01:09:42;10.00;;;4.90;;
51438;SDS011;38816;51.142;-0.974;2023-05-15T01:12:09;5.65;;;4.28;;
51438;SDS011;38816;51.142;-0.974;2023-05-15T01:14:35;7.00;;;5.00;;
51438;SDS011;38816;51.142;-0.974;2023-05-15T01:17:01;6.10;;;4.80;;
51438;SDS011;38816;51.142;-0.974;2023-05-15T01:19:27;5.88;;;4.70;;
51438;SDS011;38816;51.142;-0.974;2023-05-15T01:27:17;7.57;;;5.05;;
51438;SDS011;38816;51.142;-0.974;2023-05-15T01:29:54;4.88;;;4.38;;
51438;SDS011;38816;51.142;-0.974;2023-05-15T01:32:31;7.75;;;5.00;;
51438;SDS011;38816;51.142;-0.974;2023-05-15T01:35:07;6.45;;;5.22;;
51438;SDS011;38816;51.142;-0.974;2023-05-15T01:37:39;6.35;;;4.80;;
51438;SDS011;38816;51.142;-0.974;2023-05-15T01:40:08;9.43;;;4.88;;
51438;SDS011;38816;51.142;-0.974;2023-05-15T01:42:35;7.43;;;4.55;;
51438;SDS011;38816;51.142;-0.974;2023-05-15T01:45:06;6.20;;;4.95;;
51438;SDS011;38816;51.142;-0.974;2023-05-15T01:47:37;6.65;;;5.03;;
51438;SDS011;38816;51.142;-0.974;2023-05-15T01:50:06;6.22;;;4.65;;
51438;SDS011;38816;51.142;-0.974;2023-05-15T01:52:34;8.15;;;4.88;;
51438;SDS011;38816;51.142;-0.974;2023-05-15T01:55:03;5.65;;;4.80;;
51438;SDS011;38816;51.142;-0.974;2023-05-15T01:57:31;8.75;;;5.40;;
51438;SDS011;38816;51.142;-0.974;2023-05-15T01:59:57;5.82;;;4.95;;
51438;SDS011;38816;51.142;-0.974;2023-05-15T02:02:23;6.97;;;4.70;;
51438;SDS011;38816;51.142;-0.974;2023-05-15T02:04:50;5.40;;;4.88;;
51438;SDS011;38816;51.142;-0.974;2023-05-15T02:07:17;5.63;;;4.95;;
51438;SDS011;38816;51.142;-0.974;2023-05-15T02:09:42;7.00;;;4.88;;
51438;SDS011;38816;51.142;-0.974;2023-05-15T02:12:09;9.63;;;5.30;;
51438;SDS011;38816;51.142;-0.974;2023-05-15T02:14:35;6.32;;;4.80;;
51438;SDS011;38816;51.142;-0.974;2023-05-15T02:17:02;6.57;;;5.03;;
51438;SDS011;38816;51.142;-0.974;2023-05-15T02:19:28;8.18;;;5.15;;
51438;SDS011;38816;51.142;-0.974;2023-05-15T02:21:53;6.18;;;4.88;;
51438;SDS011;38816;51.142;-0.974;2023-05-15T02:24:19;6.68;;;4.88;;
51438;SDS011;38816;51.142;-0.974;2023-05-15T02:29:33;5.43;;;4.35;;
51438;SDS011;38816;51.142;-0.974;2023-05-15T02:37:15;5.38;;;4.45;;
51438;SDS011;38816;51.142;-0.974;2023-05-15T02:39:48;4.53;;;4.05;;
51438;SDS011;38816;51.142;-0.974;2023-05-15T02:42:18;5.40;;;4.15;;
51438;SDS011;38816;51.142;-0.974;2023-05-15T02:44:44;4.78;;;3.75;;
51438;SDS011;38816;51.142;-0.974;2023-05-15T02:47:11;4.60;;;4.00;;
51438;SDS011;38816;51.142;-0.974;2023-05-15T02:49:38;5.90;;;3.70;;
51438;SDS011;38816;51.142;-0.974;2023-05-15T02:52:04;4.30;;;3.53;;
51438;SDS011;38816;51.142;-0.974;2023-05-15T02:54:29;6.25;;;3.45;;
51438;SDS011;38816;51.142;-0.974;2023-05-15T02:56:55;4.65;;;3.45;;
51438;SDS011;38816;51.142;-0.974;2023-05-15T02:59:20;3.90;;;3.50;;
51438;SDS011;38816;51.142;-0.974;2023-05-15T03:01:46;5.80;;;3.30;;
51438;SDS011;38816;51.142;-0.974;2023-05-15T03:04:15;3.85;;;2.90;;
51438;SDS011;38816;51.142;-0.974;2023-05-15T03:06:40;3.53;;;3.22;;
51438;SDS011;38816;51.142;-0.974;2023-05-15T03:09:06;3.35;;;3.05;;
51438;SDS011;38816;51.142;-0.974;2023-05-15T03:11:32;3.88;;;3.03;;
51438;SDS011;38816;51.142;-0.974;2023-05-15T03:13:57;3.70;;;3.03;;
51438;SDS011;38816;51.142;-0.974;2023-05-15T03:16:24;4.90;;;2.83;;
51438;SDS011;38816;51.142;-0.974;2023-05-15T03:18:50;7.88;;;3.00;;
51438;SDS011;38816;51.142;-0.974;2023-05-15T03:21:19;6.53;;;3.47;;
51438;SDS011;38816;51.142;-0.974;2023-05-15T03:23:44;4.55;;;3.40;;
51438;SDS011;38816;51.142;-0.974;2023-05-15T03:26:09;4.72;;;3.33;;
51438;SDS011;38816;51.142;-0.974;2023-05-15T03:28:36;5.65;;;3.75;;
51438;SDS011;38816;51.142;-0.974;2023-05-15T03:31:01;6.70;;;3.53;;
51438;SDS011;38816;51.142;-0.974;2023-05-15T03:33:28;5.00;;;3.60;;
51438;SDS011;38816;51.142;-0.974;2023-05-15T03:35:54;5.65;;;3.78;;
51438;SDS011;38816;51.142;-0.974;2023-05-15T03:38:20;8.38;;;3.78;;
51438;SDS011;38816;51.142;-0.974;2023-05-15T03:40:45;9.07;;;4.07;;
51438;SDS011;38816;51.142;-0.974;2023-05-15T03:43:11;8.07;;;4.13;;
51438;SDS011;38816;51.142;-0.974;2023-05-15T03:45:36;5.70;;;4.10;;
51438;SDS011;38816;51.142;-0.974;2023-05-15T03:48:03;8.38;;;4.20;;
51438;SDS011;38816;51.142;-0.974;2023-05-15T03:50:29;7.10;;;3.67;;
51438;SDS011;38816;51.142;-0.974;2023-05-15T03:52:55;11.68;;;3.50;;
51438;SDS011;38816;51.142;-0.974;2023-05-15T03:55:20;8.57;;;4.45;;
51438;SDS011;38816;51.142;-0.974;2023-05-15T03:57:46;8.93;;;3.30;;
51438;SDS011;38816;51.142;-0.974;2023-05-15T04:00:11;8.43;;;3.40;;
51438;SDS011;38816;51.142;-0.974;2023-05-15T04:02:37;8.48;;;3.20;;
51438;SDS011;38816;51.142;-0.974;2023-05-15T04:05:03;8.85;;;3.50;;
51438;SDS011;38816;51.142;-0.974;2023-05-15T04:07:29;9.38;;;3.40;;
51438;SDS011;38816;51.142;-0.974;2023-05-15T04:09:55;12.68;;;3.47;;
51438;SDS011;38816;51.142;-0.974;2023-05-15T04:12:20;5.70;;;3.10;;
51438;SDS011;38816;51.142;-0.974;2023-05-15T04:14:46;17.83;;;3.80;;
51438;SDS011;38816;51.142;-0.974;2023-05-15T04:17:12;8.63;;;3.05;;
51438;SDS011;38816;51.142;-0.974;2023-05-15T04:19:37;5.97;;;3.00;;
51438;SDS011;38816;51.142;-0.974;2023-05-15T04:22:04;9.40;;;3.40;;
51438;SDS011;38816;51.142;-0.974;2023-05-15T04:24:30;8.38;;;2.95;;
51438;SDS011;38816;51.142;-0.974;2023-05-15T04:26:55;14.88;;;3.85;;
51438;SDS011;38816;51.142;-0.974;2023-05-15T04:29:21;7.28;;;3.15;;
51438;SDS011;38816;51.142;-0.974;2023-05-15T04:31:46;8.57;;;3.00;;
51438;SDS011;38816;51.142;-0.974;2023-05-15T04:34:12;8.52;;;3.53;;
51438;SDS011;38816;51.142;-0.974;2023-05-15T04:36:37;11.20;;;3.30;;
51438;SDS011;38816;51.142;-0.974;2023-05-15T04:39:02;14.48;;;3.25;;
51438;SDS011;38816;51.142;-0.974;2023-05-15T04:41:28;14.68;;;3.58;;
51438;SDS011;38816;51.142;-0.974;2023-05-15T04:43:54;7.57;;;3.38;;
51438;SDS011;38816;51.142;-0.974;2023-05-15T04:46:20;14.07;;;4.20;;
51438;SDS011;38816;51.142;-0.974;2023-05-15T04:48:45;9.15;;;3.25;;
51438;SDS011;38816;51.142;-0.974;2023-05-15T04:51:10;10.80;;;3.30;;
51438;SDS011;38816;51.142;-0.974;2023-05-15T04:53:36;9.98;;;3.13;;
51438;SDS011;38816;51.142;-0.974;2023-05-15T04:56:01;7.50;;;3.38;;
51438;SDS011;38816;51.142;-0.974;2023-05-15T04:58:27;10.73;;;3.40;;
51438;SDS011;38816;51.142;-0.974;2023-05-15T05:00:52;11.48;;;3.40;;
51438;SDS011;38816;51.142;-0.974;2023-05-15T05:03:17;11.93;;;3.35;;
51438;SDS011;38816;51.142;-0.974;2023-05-15T05:05:43;11.02;;;3.25;;
51438;SDS011;38816;51.142;-0.974;2023-05-15T05:08:08;9.55;;;2.85;;
51438;SDS011;38816;51.142;-0.974;2023-05-15T05:10:33;8.38;;;3.33;;
51438;SDS011;38816;51.142;-0.974;2023-05-15T05:12:59;10.13;;;3.40;;
51438;SDS011;38816;51.142;-0.974;2023-05-15T05:15:24;8.68;;;3.35;;
51438;SDS011;38816;51.142;-0.974;2023-05-15T05:17:50;8.85;;;3.55;;
51438;SDS011;38816;51.142;-0.974;2023-05-15T05:20:16;10.35;;;3.67;;
51438;SDS011;38816;51.142;-0.974;2023-05-15T05:22:42;16.60;;;3.65;;
51438;SDS011;38816;51.142;-0.974;2023-05-15T05:25:07;9.75;;;3.35;;
51438;SDS011;38816;51.142;-0.974;2023-05-15T05:27:33;10.13;;;3.85;;
51438;SDS011;38816;51.142;-0.974;2023-05-15T05:29:58;10.77;;;3.95;;
51438;SDS011;38816;51.142;-0.974;2023-05-15T05:32:24;12.63;;;3.42;;
51438;SDS011;38816;51.142;-0.974;2023-05-15T05:34:50;13.55;;;4.00;;
51438;SDS011;38816;51.142;-0.974;2023-05-15T05:37:15;9.38;;;3.80;;
51438;SDS011;38816;51.142;-0.974;2023-05-15T05:39:40;14.07;;;3.85;;
51438;SDS011;38816;51.142;-0.974;2023-05-15T05:42:06;14.35;;;3.50;;
51438;SDS011;38816;51.142;-0.974;2023-05-15T05:44:31;9.82;;;3.45;;
51438;SDS011;38816;51.142;-0.974;2023-05-15T05:46:58;10.52;;;2.95;;
51438;SDS011;38816;51.142;-0.974;2023-05-15T05:49:23;12.43;;;3.78;;
51438;SDS011;38816;51.142;-0.974;2023-05-15T05:51:49;13.88;;;3.20;;
51438;SDS011;38816;51.142;-0.974;2023-05-15T05:54:14;12.57;;;3.00;;
51438;SDS011;38816;51.142;-0.974;2023-05-15T05:56:42;14.52;;;2.80;;
51438;SDS011;38816;51.142;-0.974;2023-05-15T05:59:08;12.20;;;2.42;;
51438;SDS011;38816;51.142;-0.974;2023-05-15T06:01:33;10.95;;;2.67;;
51438;SDS011;38816;51.142;-0.974;2023-05-15T06:03:59;10.18;;;2.90;;
51438;SDS011;38816;51.142;-0.974;2023-05-15T06:06:25;8.10;;;2.78;;
51438;SDS011;38816;51.142;-0.974;2023-05-15T06:08:50;10.50;;;2.42;;
51438;SDS011;38816;51.142;-0.974;2023-05-15T06:11:16;9.38;;;2.55;;
51438;SDS011;38816;51.142;-0.974;2023-05-15T06:13:41;8.13;;;2.67;;
51438;SDS011;38816;51.142;-0.974;2023-05-15T06:16:07;15.60;;;2.75;;
51438;SDS011;38816;51.142;-0.974;2023-05-15T06:18:32;11.90;;;2.47;;
51438;SDS011;38816;51.142;-0.974;2023-05-15T06:20:58;9.20;;;2.35;;
51438;SDS011;38816;51.142;-0.974;2023-05-15T06:23:25;10.23;;;2.35;;
51438;SDS011;38816;51.142;-0.974;2023-05-15T06:25:50;11.00;;;2.58;;
51438;SDS011;38816;51.142;-0.974;2023-05-15T06:28:16;11.88;;;2.53;;
51438;SDS011;38816;51.142;-0.974;2023-05-15T06:30:41;11.27;;;2.88;;
51438;SDS011;38816;51.142;-0.974;2023-05-15T06:33:07;8.68;;;2.20;;
51438;SDS011;38816;51.142;-0.974;2023-05-15T06:35:32;6.22;;;2.05;;
51438;SDS011;38816;51.142;-0.974;2023-05-15T06:37:58;7.35;;;2.50;;
51438;SDS011;38816;51.142;-0.974;2023-05-15T06:40:23;11.70;;;2.10;;
51438;SDS011;38816;51.142;-0.974;2023-05-15T06:42:48;10.18;;;2.50;;
51438;SDS011;38816;51.142;-0.974;2023-05-15T06:45:14;7.57;;;2.22;;
51438;SDS011;38816;51.142;-0.974;2023-05-15T06:47:39;6.43;;;2.30;;
51438;SDS011;38816;51.142;-0.974;2023-05-15T06:50:05;10.00;;;2.20;;
51438;SDS011;38816;51.142;-0.974;2023-05-15T06:52:30;11.73;;;2.30;;
51438;SDS011;38816;51.142;-0.974;2023-05-15T06:54:56;15.68;;;2.35;;
51438;SDS011;38816;51.142;-0.974;2023-05-15T06:57:21;8.35;;;2.67;;
51438;SDS011;38816;51.142;-0.974;2023-05-15T06:59:47;8.73;;;2.10;;
51438;SDS011;38816;51.142;-0.974;2023-05-15T07:02:12;7.93;;;2.10;;
51438;SDS011;38816;51.142;-0.974;2023-05-15T07:04:38;9.48;;;2.00;;
51438;SDS011;38816;51.142;-0.974;2023-05-15T07:07:03;11.00;;;1.95;;
51438;SDS011;38816;51.142;-0.974;2023-05-15T07:09:28;9.63;;;2.40;;
51438;SDS011;38816;51.142;-0.974;2023-05-15T07:11:54;15.70;;;2.40;;
51438;SDS011;38816;51.142;-0.974;2023-05-15T07:14:20;14.60;;;2.30;;
51438;SDS011;38816;51.142;-0.974;2023-05-15T07:16:45;8.52;;;2.10;;
51438;SDS011;38816;51.142;-0.974;2023-05-15T07:19:11;6.88;;;2.20;;
51438;SDS011;38816;51.142;-0.974;2023-05-15T07:21:37;10.90;;;2.72;;
51438;SDS011;38816;51.142;-0.974;2023-05-15T07:24:03;8.25;;;1.95;;
51438;SDS011;38816;51.142;-0.974;2023-05-15T07:26:29;9.77;;;2.20;;
51438;SDS011;38816;51.142;-0.974;2023-05-15T07:28:56;8.18;;;1.90;;
51438;SDS011;38816;51.142;-0.974;2023-05-15T07:31:21;7.90;;;2.03;;
51438;SDS011;38816;51.142;-0.974;2023-05-15T07:33:47;8.27;;;2.30;;
51438;SDS011;38816;51.142;-0.974;2023-05-15T07:36:12;8.18;;;2.03;;
51438;SDS011;38816;51.142;-0.974;2023-05-15T07:38:37;6.93;;;2.13;;
51438;SDS011;38816;51.142;-0.974;2023-05-15T07:41:03;9.55;;;1.90;;
51438;SDS011;38816;51.142;-0.974;2023-05-15T07:43:28;8.77;;;1.60;;
51438;SDS011;38816;51.142;-0.974;2023-05-15T07:45:54;7.30;;;2.20;;
51438;SDS011;38816;51.142;-0.974;2023-05-15T07:48:19;10.80;;;2.15;;
51438;SDS011;38816;51.142;-0.974;2023-05-15T07:50:45;5.85;;;1.77;;
51438;SDS011;38816;51.142;-0.974;2023-05-15T07:53:12;7.10;;;2.08;;
51438;SDS011;38816;51.142;-0.974;2023-05-15T07:55:37;10.25;;;2.80;;
51438;SDS011;38816;51.142;-0.974;2023-05-15T07:58:04;7.10;;;1.90;;
51438;SDS011;38816;51.142;-0.974;2023-05-15T08:00:32;7.50;;;1.88;;
51438;SDS011;38816;51.142;-0.974;2023-05-15T08:02:58;6.00;;;1.60;;
51438;SDS011;38816;51.142;-0.974;2023-05-15T08:05:23;7.70;;;1.92;;
51438;SDS011;38816;51.142;-0.974;2023-05-15T08:07:49;3.63;;;1.80;;
51438;SDS011;38816;51.142;-0.974;2023-05-15T08:10:14;9.75;;;2.13;;
51438;SDS011;38816;51.142;-0.974;2023-05-15T08:12:40;5.95;;;1.98;;
51438;SDS011;38816;51.142;-0.974;2023-05-15T08:15:10;8.75;;;2.00;;
51438;SDS011;38816;51.142;-0.974;2023-05-15T08:17:35;5.13;;;2.45;;
51438;SDS011;38816;51.142;-0.974;2023-05-15T08:20:01;5.00;;;1.90;;
51438;SDS011;38816;51.142;-0.974;2023-05-15T08:22:27;8.95;;;2.10;;
51438;SDS011;38816;51.142;-0.974;2023-05-15T08:24:54;6.55;;;1.95;;
51438;SDS011;38816;51.142;-0.974;2023-05-15T08:27:19;7.70;;;2.30;;
51438;SDS011;38816;51.142;-0.974;2023-05-15T08:29:45;5.78;;;2.10;;
51438;SDS011;38816;51.142;-0.974;2023-05-15T08:32:10;9.68;;;2.05;;
51438;SDS011;38816;51.142;-0.974;2023-05-15T08:34:35;4.47;;;2.13;;
51438;SDS011;38816;51.142;-0.974;2023-05-15T08:37:01;8.75;;;2.80;;
51438;SDS011;38816;51.142;-0.974;2023-05-15T08:39:26;9.38;;;2.38;;
51438;SDS011;38816;51.142;-0.974;2023-05-15T08:41:57;8.60;;;2.33;;
51438;SDS011;38816;51.142;-0.974;2023-05-15T08:44:24;10.93;;;2.40;;
51438;SDS011;38816;51.142;-0.974;2023-05-15T08:46:51;7.40;;;2.13;;
51438;SDS011;38816;51.142;-0.974;2023-05-15T08:49:40;6.75;;;2.33;;
51438;SDS011;38816;51.142;-0.974;2023-05-15T08:52:15;7.22;;;2.20;;
51438;SDS011;38816;51.142;-0.974;2023-05-15T08:54:41;4.90;;;2.13;;
51438;SDS011;38816;51.142;-0.974;2023-05-15T08:57:06;6.72;;;2.13;;
51438;SDS011;38816;51.142;-0.974;2023-05-15T08:59:33;7.18;;;2.00;;
51438;SDS011;38816;51.142;-0.974;2023-05-15T09:01:58;7.50;;;2.13;;
51438;SDS011;38816;51.142;-0.974;2023-05-15T09:04:24;6.05;;;2.70;;
51438;SDS011;38816;51.142;-0.974;2023-05-15T09:06:49;7.50;;;2.63;;
51438;SDS011;38816;51.142;-0.974;2023-05-15T09:09:15;7.00;;;2.40;;
51438;SDS011;38816;51.142;-0.974;2023-05-15T09:11:43;8.25;;;2.22;;
51438;SDS011;38816;51.142;-0.974;2023-05-15T09:14:09;7.82;;;2.13;;
51438;SDS011;38816;51.142;-0.974;2023-05-15T09:16:35;3.95;;;2.35;;
51438;SDS011;38816;51.142;-0.974;2023-05-15T09:19:01;9.68;;;2.45;;
51438;SDS011;38816;51.142;-0.974;2023-05-15T09:21:28;7.15;;;2.60;;
51438;SDS011;38816;51.142;-0.974;2023-05-15T09:24:14;5.93;;;2.80;;
51438;SDS011;38816;51.142;-0.974;2023-05-15T09:26:59;7.75;;;2.60;;
51438;SDS011;38816;51.142;-0.974;2023-05-15T09:29:30;8.95;;;2.40;;
51438;SDS011;38816;51.142;-0.974;2023-05-15T09:32:00;8.68;;;2.50;;
51438;SDS011;38816;51.142;-0.974;2023-05-15T09:34:28;7.95;;;2.67;;
51438;SDS011;38816;51.142;-0.974;2023-05-15T09:36:57;8.07;;;2.42;;
51438;SDS011;38816;51.142;-0.974;2023-05-15T09:39:25;7.47;;;3.10;;
51438;SDS011;38816;51.142;-0.974;2023-05-15T09:41:50;9.95;;;2.95;;
51438;SDS011;38816;51.142;-0.974;2023-05-15T09:44:23;9.43;;;2.90;;
51438;SDS011;38816;51.142;-0.974;2023-05-15T09:46:49;10.75;;;2.65;;
51438;SDS011;38816;51.142;-0.974;2023-05-15T09:49:15;6.18;;;3.45;;
51438;SDS011;38816;51.142;-0.974;2023-05-15T09:51:42;4.82;;;3.13;;
51438;SDS011;38816;51.142;-0.974;2023-05-15T09:54:13;9.32;;;3.03;;
51438;SDS011;38816;51.142;-0.974;2023-05-15T09:56:43;5.75;;;3.00;;
51438;SDS011;38816;51.142;-0.974;2023-05-15T09:59:11;6.60;;;3.17;;
51438;SDS011;38816;51.142;-0.974;2023-05-15T10:01:41;5.38;;;2.83;;
51438;SDS011;38816;51.142;-0.974;2023-05-15T10:04:08;7.53;;;3.38;;
51438;SDS011;38816;51.142;-0.974;2023-05-15T10:06:34;6.30;;;3.20;;
51438;SDS011;38816;51.142;-0.974;2023-05-15T10:09:01;8.45;;;3.90;;
51438;SDS011;38816;51.142;-0.974;2023-05-15T10:11:26;8.57;;;4.10;;
51438;SDS011;38816;51.142;-0.974;2023-05-15T10:13:54;4.10;;;3.70;;
51438;SDS011;38816;51.142;-0.974;2023-05-15T10:16:21;5.45;;;4.70;;
51438;SDS011;38816;51.142;-0.974;2023-05-15T10:18:47;7.68;;;4.70;;
51438;SDS011;38816;51.142;-0.974;2023-05-15T10:21:15;5.28;;;4.38;;
51438;SDS011;38816;51.142;-0.974;2023-05-15T10:23:42;8.43;;;5.18;;
51438;SDS011;38816;51.142;-0.974;2023-05-15T10:26:10;6.03;;;4.88;;
51438;SDS011;38816;51.142;-0.974;2023-05-15T10:28:43;10.75;;;5.45;;
51438;SDS011;38816;51.142;-0.974;2023-05-15T10:31:10;6.35;;;5.72;;
51438;SDS011;38816;51.142;-0.974;2023-05-15T10:33:36;10.25;;;5.07;;
51438;SDS011;38816;51.142;-0.974;2023-05-15T10:36:03;7.70;;;5.60;;
51438;SDS011;38816;51.142;-0.974;2023-05-15T10:38:30;6.82;;;5.10;;
51438;SDS011;38816;51.142;-0.974;2023-05-15T10:40:57;6.70;;;5.80;;
51438;SDS011;38816;51.142;-0.974;2023-05-15T10:43:24;8.55;;;6.18;;
51438;SDS011;38816;51.142;-0.974;2023-05-15T10:45:51;9.13;;;6.68;;
51438;SDS011;38816;51.142;-0.974;2023-05-15T10:48:17;8.35;;;6.65;;
51438;SDS011;38816;51.142;-0.974;2023-05-15T10:50:43;9.10;;;6.25;;
51438;SDS011;38816;51.142;-0.974;2023-05-15T10:53:08;9.05;;;6.53;;
51438;SDS011;38816;51.142;-0.974;2023-05-15T10:55:35;8.38;;;6.45;;
51438;SDS011;38816;51.142;-0.974;2023-05-15T10:58:00;7.10;;;6.40;;
51438;SDS011;38816;51.142;-0.974;2023-05-15T11:00:29;6.85;;;5.97;;
51438;SDS011;38816;51.142;-0.974;2023-05-15T11:02:57;6.50;;;5.90;;
51438;SDS011;38816;51.142;-0.974;2023-05-15T11:05:24;7.32;;;6.60;;
51438;SDS011;38816;51.142;-0.974;2023-05-15T11:10:45;8.00;;;5.97;;
51438;SDS011;38816;51.142;-0.974;2023-05-15T11:13:10;6.20;;;5.60;;
51438;SDS011;38816;51.142;-0.974;2023-05-15T11:15:46;6.88;;;6.25;;
51438;SDS011;38816;51.142;-0.974;2023-05-15T11:18:12;6.90;;;6.18;;
51438;SDS011;38816;51.142;-0.974;2023-05-15T11:20:38;7.40;;;6.70;;
51438;SDS011;38816;51.142;-0.974;2023-05-15T11:23:04;9.45;;;6.72;;
51438;SDS011;38816;51.142;-0.974;2023-05-15T11:25:30;7.10;;;6.40;;
51438;SDS011;38816;51.142;-0.974;2023-05-15T11:27:58;7.38;;;6.38;;
51438;SDS011;38816;51.142;-0.974;2023-05-15T11:30:37;8.95;;;6.70;;
51438;SDS011;38816;51.142;-0.974;2023-05-15T11:35:41;10.38;;;6.93;;
51438;SDS011;38816;51.142;-0.974;2023-05-15T11:38:11;7.90;;;7.28;;
51438;SDS011;38816;51.142;-0.974;2023-05-15T11:40:48;10.18;;;7.60;;
51438;SDS011;38816;51.142;-0.974;2023-05-15T11:46:04;9.60;;;8.10;;
51438;SDS011;38816;51.142;-0.974;2023-05-15T11:48:31;8.02;;;7.28;;
51438;SDS011;38816;51.142;-0.974;2023-05-15T11:51:02;10.82;;;7.68;;
51438;SDS011;38816;51.142;-0.974;2023-05-15T11:53:30;9.15;;;8.25;;
51438;SDS011;38816;51.142;-0.974;2023-05-15T11:55:56;8.93;;;8.02;;
51438;SDS011;38816;51.142;-0.974;2023-05-15T11:58:23;9.07;;;7.75;;
51438;SDS011;38816;51.142;-0.974;2023-05-15T12:00:50;8.95;;;8.13;;
51438;SDS011;38816;51.142;-0.974;2023-05-15T12:03:17;9.70;;;7.65;;
51438;SDS011;38816;51.142;-0.974;2023-05-15T12:05:47;9.50;;;8.23;;
51438;SDS011;38816;51.142;-0.974;2023-05-15T12:08:13;8.95;;;8.15;;
51438;SDS011;38816;51.142;-0.974;2023-05-15T12:10:39;12.05;;;9.07;;
51438;SDS011;38816;51.142;-0.974;2023-05-15T12:13:06;9.40;;;8.55;;
51438;SDS011;38816;51.142;-0.974;2023-05-15T12:15:35;9.82;;;8.82;;
51438;SDS011;38816;51.142;-0.974;2023-05-15T12:18:02;9.10;;;8.38;;
51438;SDS011;38816;51.142;-0.974;2023-05-15T12:20:27;9.20;;;8.48;;
51438;SDS011;38816;51.142;-0.974;2023-05-15T12:22:53;10.40;;;8.90;;
51438;SDS011;38816;51.142;-0.974;2023-05-15T12:25:18;11.45;;;8.45;;
51438;SDS011;38816;51.142;-0.974;2023-05-15T12:27:43;9.38;;;8.68;;
51438;SDS011;38816;51.142;-0.974;2023-05-15T12:30:09;11.70;;;9.65;;
51438;SDS011;38816;51.142;-0.974;2023-05-15T12:32:37;10.18;;;9.13;;
51438;SDS011;38816;51.142;-0.974;2023-05-15T12:35:03;10.88;;;9.40;;
51438;SDS011;38816;51.142;-0.974;2023-05-15T12:37:34;9.88;;;8.95;;
51438;SDS011;38816;51.142;-0.974;2023-05-15T12:40:01;10.60;;;9.25;;
51438;SDS011;38816;51.142;-0.974;2023-05-15T12:42:40;10.57;;;9.57;;
51438;SDS011;38816;51.142;-0.974;2023-05-15T12:45:14;11.55;;;10.45;;
51438;SDS011;38816;51.142;-0.974;2023-05-15T12:47:40;11.05;;;10.15;;
51438;SDS011;38816;51.142;-0.974;2023-05-15T12:50:11;10.98;;;9.98;;
51438;SDS011;38816;51.142;-0.974;2023-05-15T12:52:39;10.98;;;9.98;;
51438;SDS011;38816;51.142;-0.974;2023-05-15T12:55:05;11.20;;;10.15;;
51438;SDS011;38816;51.142;-0.974;2023-05-15T12:57:31;11.10;;;10.07;;
51438;SDS011;38816;51.142;-0.974;2023-05-15T12:59:58;11.40;;;10.40;;
51438;SDS011;38816;51.142;-0.974;2023-05-15T13:02:24;12.00;;;10.07;;
51438;SDS011;38816;51.142;-0.974;2023-05-15T13:04:49;11.23;;;10.13;;
51438;SDS011;38816;51.142;-0.974;2023-05-15T13:07:15;12.27;;;10.10;;
51438;SDS011;38816;51.142;-0.974;2023-05-15T13:09:41;11.57;;;10.52;;
51438;SDS011;38816;51.142;-0.974;2023-05-15T13:12:07;10.45;;;9.68;;
51438;SDS011;38816;51.142;-0.974;2023-05-15T13:14:33;10.45;;;9.65;;
51438;SDS011;38816;51.142;-0.974;2023-05-15T13:16:59;11.63;;;10.48;;
51438;SDS011;38816;51.142;-0.974;2023-05-15T13:19:29;11.50;;;10.32;;
51438;SDS011;38816;51.142;-0.974;2023-05-15T13:21:55;10.82;;;9.82;;
51438;SDS011;38816;51.142;-0.974;2023-05-15T13:24:21;10.95;;;9.90;;
51438;SDS011;38816;51.142;-0.974;2023-05-15T13:26:46;11.63;;;10.55;;
51438;SDS011;38816;51.142;-0.974;2023-05-15T13:29:11;11.63;;;10.73;;
51438;SDS011;38816;51.142;-0.974;2023-05-15T13:31:37;11.77;;;10.82;;
51438;SDS011;38816;51.142;-0.974;2023-05-15T13:34:02;10.80;;;9.90;;
51438;SDS011;38816;51.142;-0.974;2023-05-15T13:36:28;10.57;;;9.55;;
51438;SDS011;38816;51.142;-0.974;2023-05-15T13:38:53;10.52;;;9.57;;
51438;SDS011;38816;51.142;-0.974;2023-05-15T13:41:18;12.25;;;11.25;;
51438;SDS011;38816;51.142;-0.974;2023-05-15T13:43:45;11.05;;;10.15;;
51438;SDS011;38816;51.142;-0.974;2023-05-15T13:46:11;10.43;;;9.60;;
51438;SDS011;38816;51.142;-0.974;2023-05-15T13:48:37;12.32;;;11.32;;
51438;SDS011;38816;51.142;-0.974;2023-05-15T13:51:02;11.25;;;10.35;;
51438;SDS011;38816;51.142;-0.974;2023-05-15T13:53:28;12.18;;;11.20;;
51438;SDS011;38816;51.142;-0.974;2023-05-15T13:55:53;12.48;;;11.48;;
51438;SDS011;38816;51.142;-0.974;2023-05-15T13:58:18;11.75;;;10.63;;
51438;SDS011;38816;51.142;-0.974;2023-05-15T14:00:45;11.55;;;10.57;;
51438;SDS011;38816;51.142;-0.974;2023-05-15T14:03:12;11.60;;;10.52;;
51438;SDS011;38816;51.142;-0.974;2023-05-15T14:05:38;11.55;;;10.75;;
51438;SDS011;38816;51.142;-0.974;2023-05-15T14:08:04;11.68;;;10.82;;
51438;SDS011;38816;51.142;-0.974;2023-05-15T14:10:29;12.43;;;11.23;;
51438;SDS011;38816;51.142;-0.974;2023-05-15T14:12:55;12.15;;;11.15;;
51438;SDS011;38816;51.142;-0.974;2023-05-15T14:15:20;11.45;;;10.50;;
51438;SDS011;38816;51.142;-0.974;2023-05-15T14:17:46;12.32;;;11.40;;
51438;SDS011;38816;51.142;-0.974;2023-05-15T14:20:12;11.85;;;10.90;;
51438;SDS011;38816;51.142;-0.974;2023-05-15T14:22:38;12.50;;;10.90;;
51438;SDS011;38816;51.142;-0.974;2023-05-15T14:25:04;12.23;;;11.15;;
51438;SDS011;38816;51.142;-0.974;2023-05-15T14:27:30;12.43;;;11.43;;
51438;SDS011;38816;51.142;-0.974;2023-05-15T14:29:56;12.07;;;10.98;;
51438;SDS011;38816;51.142;-0.974;2023-05-15T14:32:21;11.88;;;10.98;;
51438;SDS011;38816;51.142;-0.974;2023-05-15T14:34:47;11.73;;;10.93;;
51438;SDS011;38816;51.142;-0.974;2023-05-15T14:37:13;11.20;;;10.40;;
51438;SDS011;38816;51.142;-0.974;2023-05-15T14:39:39;11.82;;;10.90;;
51438;SDS011;38816;51.142;-0.974;2023-05-15T14:42:04;12.02;;;11.13;;
51438;SDS011;38816;51.142;-0.974;2023-05-15T14:44:30;11.98;;;10.98;;
51438;SDS011;38816;51.142;-0.974;2023-05-15T14:47:05;12.07;;;11.18;;